This is the latest recevied weather packets stored in our database for station/object KI4UEM. If no packets are shown the sender has not sent any weather packets the latest 10 day(s).
| Time | Temp. | Humidity | Pressure | Rain* | Wind** | Luminosity | Snow |
|---|---|---|---|---|---|---|---|
| 1777642216 | 16.67° C | 66% | 1015 hPa | 0 mm | - | 145 W/m² | - |
| 1777633216 | 16.11° C | 74% | 1013.9 hPa | 0 mm | - | 5 W/m² | - |
| 1777632016 | 16.11° C | 74% | 1013.7 hPa | 0 mm | - | 0 W/m² | - |
| 1777630816 | 16.67° C | 75% | 1013.5 hPa | 0 mm | - | 0 W/m² | - |
| 1777630216 | 16.67° C | 76% | 1013.3 hPa | 0 mm | - | 0 W/m² | - |
| 1777629016 | 16.11° C | 80% | 1013.2 hPa | 0 mm | - | 0 W/m² | - |
| 1777628416 | 16.11° C | 84% | 1012.8 hPa | 0 mm | - | 0 W/m² | - |
| 1777625416 | 17.78° C | 93% | 1013.1 hPa | 0 mm | - | 0 W/m² | - |
| 1777623635 | 17.78° C | 93% | 1012.7 hPa | 0 mm | - | 0 W/m² | - |
| 1777616417 | 18.33° C | 92% | 1012.3 hPa | 0 mm | - | 0 W/m² | - |
| 1777610417 | 18.33° C | 90% | 1012.5 hPa | 0 mm | - | 0 W/m² | - |
| 1777609217 | 18.33° C | 88% | 1012.7 hPa | 0 mm | - | 0 W/m² | - |
| 1777607417 | 18.89° C | 87% | 1012.7 hPa | 0 mm | - | 0 W/m² | - |
| 1777600217 | 21.11° C | 81% | 1011.9 hPa | 0 mm | - | 0 W/m² | - |
| 1777599638 | 21.11° C | 80% | 1011.7 hPa | 0 mm | - | 0 W/m² | - |
| 1777597818 | 21.67° C | 77% | 1011.4 hPa | 0 mm | - | 0 W/m² | - |
| 1777594237 | 22.22° C | 78% | 1010.6 hPa | 0 mm | - | 0 W/m² | - |
| 1777590617 | 23.33° C | 70% | 1010.2 hPa | 0 mm | - | 45 W/m² | - |
| 1777590037 | 23.89° C | 69% | 1009.9 hPa | 0 mm | - | 82 W/m² | - |
| 1777586417 | 24.44° C | 65% | 1009.8 hPa | 0 mm | - | 143 W/m² | - |
| 1777585817 | 25° C | 63% | 1009.8 hPa | 0 mm | - | 445 W/m² | - |
| 1777584017 | 24.44° C | 66% | 1009.7 hPa | 0 mm | - | 207 W/m² | - |
| 1777582217 | 25° C | 65% | 1009.9 hPa | 0 mm | - | 573 W/m² | - |
| 1777573217 | 22.78° C | 75% | 1010.9 hPa | 0 mm | - | 365 W/m² | - |
| 1777571417 | 22.78° C | 77% | 1011 hPa | 0 mm | - | 739 W/m² | - |
* Rain latest hour (hover to see other rain measurements)
** Current wind speed in m/s (hover to see current wind gust speed)